Register - Login
Views: 95462741
Main - Memberlist - Active users - Calendar - Wiki - IRC Chat - Online users
Ranks - Rules/FAQ - Stats - Latest Posts - Color Chart - Smilies
10-20-18 08:18:46 AM


3631 users found.
Sort by: Total posts | EXP | User name | Registration date | Age
Sex: Male | Female | N/A | All
Powerlevel: Banned | Normal | Moderator | Administrator | All

# Username Registered on Posts Level EXP
2851.   Vader2401 08-07-09 07:33:46 PM 1 3 57
2852.   Aamelo 08-06-09 06:53:11 PM 46 16 18088
2853.   XSuperGamer 08-06-09 06:39:06 PM 17 10 4063
2854.   sonicadventura 08-05-09 07:16:00 PM 0 1 0
2855.   Toast 08-05-09 02:06:21 PM 0 1 0
2856. livetek 08-05-09 06:53:06 AM 2 4 164
2857.   RPM 08-04-09 10:34:45 PM 28 13 8592
2858.   davem314 08-04-09 03:38:17 AM 3 5 301
2859.   bigchin 08-03-09 09:57:35 PM 3 5 301
2860.   MysterBlock 08-03-09 07:47:03 PM 1 3 58
2861.   Lightspeed97 08-01-09 07:56:30 AM 3 5 301
2862.   supersuvo64 07-31-09 11:23:25 PM 4 5 464
2863.   dalc789 07-29-09 03:04:16 PM 0 1 0
2864.   Kironide 07-29-09 03:01:03 AM 8 7 1313
2865. dirbaio 07-28-09 09:54:15 AM -1288 NaN NaN
2866.   Mel 07-26-09 08:05:30 PM 12 9 2414
2867.   Acelp21 07-25-09 03:28:54 PM 1 3 58
2868.   LadySTRiPES 07-23-09 10:18:57 AM 148 27 104613
2869.   codeman 07-21-09 08:30:11 PM 1 3 58
2870. Cheatz 07-19-09 04:05:07 PM 4 5 465
2871. Sephiroth 07-18-09 12:34:26 AM 41 15 15265
2872.   bowser97 07-14-09 10:46:21 PM 2 4 164
2873.   CornetTheory 07-14-09 01:47:29 PM 0 1 0
2874.   Hid€€€n 07-13-09 02:59:03 PM 0 1 0
2875.   TenPoundHammer 07-08-09 07:55:11 PM 1 3 58
2876.   wuffy 07-08-09 06:25:45 PM 0 1 0
2877.   TChaos 07-08-09 05:23:59 PM 0 1 0
2878.   expertmac2 07-08-09 11:06:23 AM 2 4 164
2879.   YoshiSonic 07-07-09 04:40:53 AM 1 3 58
2880.   Warz 07-06-09 01:45:18 PM 1 3 58
2881.   Shadow Bone 07-06-09 11:45:17 AM 10 8 1841
2882.   Link 70222 07-02-09 08:12:55 PM 47 16 18778
2883.   danielvillaf 07-02-09 02:55:04 AM 4 5 466
2884.   Naldrag 07-01-09 08:29:44 AM 0 1 0
2885.   FunkMario64 06-29-09 05:14:09 PM 0 1 0
2886.   dreamdragon 06-28-09 10:53:07 PM 1 3 58
2887.   mariotool 06-28-09 06:52:28 PM 0 1 0
2888. PSI Purple 06-28-09 12:58:15 AM 60 18 27105
2889. Corruptendo 06-27-09 01:27:06 PM 3 5 303
2890.   El Huesudo II 06-26-09 06:19:34 PM 7 7 1080
2891.   Hiyoko 06-25-09 01:52:00 PM 16 10 3733
2892.   DorskyMarippy 06-25-09 08:01:57 AM 1 3 58
2893.   Garmichael 06-24-09 02:10:05 AM 121 24 77669
2894.   Xk-chan 06-22-09 05:18:19 AM 12 9 2426
2895.   Zonic 06-22-09 01:53:31 AM 6 6 857
2896.   Kyouchou Budgie 06-22-09 12:03:14 AM 0 1 0
2897.   Marzen 06-21-09 04:40:26 PM 47 16 18809
2898. z-byte 06-21-09 04:12:26 PM 32 14 10567
2899.   Knave 06-21-09 03:13:50 AM 26 12 7739
2900.   Moustique 06-20-09 04:12:05 PM 3 5 303
Pages: 1 2 3 4 5 6 7 8 9 10 11 12 13 14 15 16 17 18 19 20 21 22 23 24 25 26 27 28 29 30 31 32 33 34 35 36 37 38 39 40 41 42 43 44 45 46 47 48 49 50 51 52 53 54 55 56 57 58 59 60 61 62 63 64 65 66 67 68 69 70 71 72 73



Rusted Logic

Acmlmboard - commit 5d36857 [2018-03-03]
©2000-2018 Acmlm, Xkeeper, Inuyasha, et al.

11 database queries.
Query execution time: 0.235776 seconds
Script execution time: 0.036873 seconds
Total render time: 0.272649 seconds
Memory used: 22544384